createdAt,value
2019-05-23T00:01:46.349Z,9.90
2019-05-23T00:04:36.257Z,10.00
2019-05-23T00:07:26.178Z,9.90
2019-05-23T00:10:16.442Z,9.80
2019-05-23T00:12:54.802Z,9.80
2019-05-23T00:15:36.153Z,9.90
2019-05-23T00:18:06.482Z,9.90
2019-05-23T00:20:37.002Z,10.00
2019-05-23T00:23:07.724Z,10.10
2019-05-23T00:25:37.926Z,10.10
2019-05-23T00:28:08.924Z,10.00
2019-05-23T00:30:40.664Z,10.00
2019-05-23T00:33:12.496Z,10.00
2019-05-23T00:35:42.696Z,10.00
2019-05-23T00:38:14.690Z,9.90
2019-05-23T00:40:46.619Z,9.90
2019-05-23T00:43:18.375Z,9.90
2019-05-23T00:45:49.924Z,9.90
2019-05-23T00:48:21.307Z,9.80
2019-05-23T00:50:52.896Z,9.80
2019-05-23T00:53:23.617Z,9.80
2019-05-23T00:55:53.836Z,9.80
2019-05-23T00:58:26.116Z,9.80
2019-05-23T01:00:57.592Z,9.70
2019-05-23T01:03:29.617Z,9.70
2019-05-23T01:05:59.427Z,9.70
2019-05-23T01:08:31.218Z,9.80
2019-05-23T01:11:01.628Z,9.80
2019-05-23T01:13:32.328Z,9.80
2019-05-23T01:16:03.031Z,9.70
2019-05-23T01:18:33.486Z,9.70
2019-05-23T01:21:06.603Z,9.70
2019-05-23T01:23:41.524Z,9.70
2019-05-23T01:26:12.498Z,9.60
2019-05-23T01:28:44.253Z,9.60
2019-05-23T01:31:22.376Z,9.60
2019-05-23T01:33:53.152Z,9.70
2019-05-23T01:36:24.239Z,9.80
2019-05-23T01:38:54.653Z,9.80
2019-05-23T01:41:25.024Z,9.80
2019-05-23T01:43:56.386Z,9.80
2019-05-23T01:46:26.696Z,9.70
2019-05-23T01:48:57.089Z,9.70
2019-05-23T01:51:27.408Z,9.70
2019-05-23T01:53:57.524Z,9.60
2019-05-23T01:56:27.882Z,9.60
2019-05-23T01:58:58.662Z,9.70
2019-05-23T02:01:29.220Z,9.70
2019-05-23T02:03:59.999Z,9.80
2019-05-23T02:06:30.192Z,9.80
2019-05-23T02:09:01.373Z,9.80
2019-05-23T02:11:32.343Z,9.80
2019-05-23T02:14:03.624Z,9.80
2019-05-23T02:16:34.596Z,9.80
2019-05-23T02:19:05.982Z,9.70
2019-05-23T02:21:36.252Z,9.70
2019-05-23T02:24:07.237Z,9.70
2019-05-23T02:26:38.504Z,9.70
2019-05-23T02:29:10.320Z,9.70
2019-05-23T02:31:41.213Z,9.70
2019-05-23T02:34:12.138Z,9.60
2019-05-23T02:36:42.718Z,9.60
2019-05-23T02:39:32.745Z,9.60
2019-05-23T02:42:04.870Z,9.70
2019-05-23T02:44:35.381Z,9.70
2019-05-23T02:47:13.758Z,9.70
2019-05-23T02:49:44.896Z,9.70
2019-05-23T02:52:22.732Z,9.70
2019-05-23T02:54:54.331Z,9.70
2019-05-23T02:57:26.769Z,9.60
2019-05-23T03:00:01.601Z,9.50
2019-05-23T03:02:47.929Z,9.50
2019-05-23T03:05:22.949Z,9.40
2019-05-23T03:07:53.316Z,9.40
2019-05-23T03:10:24.712Z,9.40
2019-05-23T03:12:57.055Z,9.40
2019-05-23T03:15:28.663Z,9.40
2019-05-23T03:18:01.761Z,9.40
2019-05-23T03:20:34.418Z,9.40
2019-05-23T03:23:13.366Z,9.30
2019-05-23T03:25:46.416Z,9.30
2019-05-23T03:28:18.655Z,9.30
2019-05-23T03:31:25.154Z,9.30
2019-05-23T03:33:31.262Z,9.30
2019-05-23T03:36:02.445Z,9.30
2019-05-23T03:38:33.341Z,9.20
2019-05-23T03:41:04.824Z,9.20
2019-05-23T03:43:36.658Z,9.10
2019-05-23T03:46:08.912Z,9.00
2019-05-23T03:48:40.803Z,9.00
2019-05-23T03:51:12.189Z,9.10
2019-05-23T03:53:43.404Z,9.10
2019-05-23T03:56:13.654Z,9.00
2019-05-23T03:58:45.060Z,9.00
2019-05-23T04:01:16.393Z,9.00
2019-05-23T04:03:47.585Z,9.00
2019-05-23T04:06:17.802Z,9.00
2019-05-23T04:08:48.815Z,9.10
2019-05-23T04:11:19.609Z,9.00
2019-05-23T04:13:49.796Z,9.00
2019-05-23T04:16:20.081Z,9.00
2019-05-23T04:18:50.473Z,9.00
2019-05-23T04:21:24.667Z,9.10
2019-05-23T04:23:54.872Z,9.20
2019-05-23T04:26:26.849Z,9.10
2019-05-23T04:28:57.039Z,9.10
2019-05-23T04:31:27.324Z,9.20
2019-05-23T04:33:57.443Z,9.30
2019-05-23T04:36:27.825Z,9.30
2019-05-23T04:38:58.786Z,9.30
2019-05-23T04:41:29.173Z,9.20
2019-05-23T04:43:59.186Z,9.40
2019-05-23T04:46:29.308Z,9.40
2019-05-23T04:48:59.502Z,9.50
2019-05-23T04:51:30.110Z,9.40
2019-05-23T04:54:00.746Z,9.40
2019-05-23T04:56:32.042Z,9.60
2019-05-23T04:59:02.726Z,9.60
2019-05-23T05:01:33.437Z,9.80
2019-05-23T05:04:04.345Z,9.90
2019-05-23T05:06:34.925Z,10.00
2019-05-23T05:09:08.361Z,10.30
2019-05-23T05:11:38.775Z,10.40
2019-05-23T05:14:09.399Z,10.40
2019-05-23T05:16:39.591Z,10.60
2019-05-23T05:19:10.288Z,10.60
2019-05-23T05:21:40.735Z,10.80
2019-05-23T05:24:11.094Z,10.80
2019-05-23T05:26:41.189Z,10.90
2019-05-23T05:29:11.605Z,11.10
2019-05-23T05:31:41.706Z,11.20
2019-05-23T05:34:12.021Z,11.30
2019-05-23T05:36:42.137Z,11.30
2019-05-23T05:39:13.016Z,11.40
2019-05-23T05:41:43.588Z,11.60
2019-05-23T05:44:14.071Z,11.70
2019-05-23T05:46:44.345Z,11.80
2019-05-23T05:49:15.006Z,11.90
2019-05-23T05:51:45.025Z,12.10
2019-05-23T05:54:15.820Z,12.10
2019-05-23T05:56:45.915Z,12.20
2019-05-23T05:59:15.895Z,12.20
2019-05-23T06:01:47.588Z,12.30
2019-05-23T06:04:17.705Z,12.40
2019-05-23T06:06:51.969Z,12.60
2019-05-23T06:09:23.833Z,12.70
2019-05-23T06:11:54.228Z,12.70
2019-05-23T06:14:24.512Z,12.80
2019-05-23T06:16:56.249Z,12.80
2019-05-23T06:19:26.545Z,12.90
2019-05-23T06:21:56.665Z,13.00
2019-05-23T06:24:42.419Z,13.00
2019-05-23T06:26:59.056Z,13.20
2019-05-23T06:29:29.481Z,13.20
2019-05-23T06:31:59.669Z,13.30
2019-05-23T06:34:30.391Z,13.30
2019-05-23T06:37:00.512Z,13.40
2019-05-23T06:39:31.227Z,13.40
2019-05-23T06:42:01.283Z,13.40
2019-05-23T06:44:32.448Z,13.40
2019-05-23T06:47:03.462Z,13.50
2019-05-23T06:49:33.560Z,13.60
2019-05-23T06:52:03.959Z,13.60
2019-05-23T06:54:34.057Z,13.60
2019-05-23T06:57:04.390Z,13.40
2019-05-23T06:59:34.670Z,13.30
2019-05-23T07:02:04.797Z,13.30
2019-05-23T07:04:34.892Z,13.40
2019-05-23T07:07:05.992Z,13.60
2019-05-23T07:09:36.064Z,13.80
2019-05-23T07:12:06.444Z,13.80
2019-05-23T07:14:36.643Z,13.60
2019-05-23T07:17:07.243Z,13.50
2019-05-23T07:19:37.266Z,13.40
2019-05-23T07:22:07.396Z,13.50
2019-05-23T07:24:37.686Z,13.70
2019-05-23T07:27:07.950Z,13.60
2019-05-23T07:29:38.015Z,13.50
2019-05-23T07:32:08.681Z,13.60
2019-05-23T07:34:39.873Z,13.70
2019-05-23T07:37:10.161Z,13.90
2019-05-23T07:39:40.278Z,13.70
2019-05-23T07:42:11.354Z,13.90
2019-05-23T07:44:48.413Z,14.30
2019-05-23T07:47:15.704Z,14.60
2019-05-23T07:49:46.163Z,14.90
2019-05-23T07:52:16.208Z,14.80
2019-05-23T07:54:47.953Z,14.70
2019-05-23T07:57:18.088Z,14.70
2019-05-23T07:59:48.901Z,15.00
2019-05-23T08:02:26.558Z,15.20
2019-05-23T08:04:57.097Z,15.30
2019-05-23T08:07:27.463Z,15.50
2019-05-23T08:09:57.693Z,15.80
2019-05-23T08:12:27.838Z,15.90
2019-05-23T08:14:58.956Z,16.00
2019-05-23T08:17:30.040Z,16.30
2019-05-23T08:20:00.151Z,16.00
2019-05-23T08:22:30.428Z,15.90
2019-05-23T08:25:00.512Z,16.10
2019-05-23T08:27:30.733Z,15.90
2019-05-23T08:30:02.456Z,15.80
2019-05-23T08:32:33.516Z,16.00
2019-05-23T08:35:04.773Z,16.60
2019-05-23T08:37:35.534Z,16.70
2019-05-23T08:40:06.764Z,16.70
2019-05-23T08:42:37.478Z,16.60
2019-05-23T08:45:09.141Z,16.40
2019-05-23T08:47:40.501Z,15.90
2019-05-23T08:50:12.050Z,15.80
2019-05-23T08:52:42.100Z,15.80
2019-05-23T08:55:27.966Z,15.70
2019-05-23T08:57:59.090Z,15.80
2019-05-23T09:00:29.926Z,15.90
2019-05-23T09:03:01.010Z,16.20
2019-05-23T09:05:32.664Z,16.60
2019-05-23T09:08:03.863Z,16.50
2019-05-23T09:10:34.652Z,16.40
2019-05-23T09:13:04.914Z,16.40
2019-05-23T09:15:35.351Z,16.20
2019-05-23T09:18:06.885Z,16.50
2019-05-23T09:20:38.269Z,16.70
2019-05-23T09:23:09.220Z,16.70
2019-05-23T09:25:39.639Z,16.20
2019-05-23T09:28:11.373Z,16.10
2019-05-23T09:30:41.551Z,16.20
2019-05-23T09:33:11.642Z,16.60
2019-05-23T09:35:41.822Z,17.00
2019-05-23T09:38:12.038Z,17.30
2019-05-23T09:40:42.224Z,17.50
2019-05-23T09:43:12.601Z,17.70
2019-05-23T09:45:42.803Z,17.70
2019-05-23T09:48:12.938Z,18.00
2019-05-23T09:50:43.058Z,18.50
2019-05-23T09:53:14.286Z,18.10
2019-05-23T09:55:44.467Z,18.10
2019-05-23T09:58:14.556Z,18.20
2019-05-23T10:00:44.824Z,18.50
2019-05-23T10:03:15.824Z,18.30
2019-05-23T10:05:46.431Z,18.50
2019-05-23T10:08:16.416Z,18.70
2019-05-23T10:10:46.832Z,19.00
2019-05-23T10:13:17.037Z,19.40
2019-05-23T10:15:54.634Z,19.80
2019-05-23T10:18:24.857Z,19.70
2019-05-23T10:20:54.877Z,18.80
2019-05-23T10:23:24.989Z,18.40
2019-05-23T10:25:55.024Z,17.90
2019-05-23T10:28:25.187Z,17.60
2019-05-23T10:30:55.357Z,17.50
2019-05-23T10:33:25.476Z,17.40
2019-05-23T10:36:00.284Z,17.40
2019-05-23T10:38:29.358Z,17.30
2019-05-23T10:40:59.579Z,17.30
2019-05-23T10:43:29.753Z,17.20
2019-05-23T10:45:59.846Z,19.80
2019-05-23T10:48:30.898Z,22.40
2019-05-23T10:51:01.345Z,23.60
2019-05-23T10:53:31.926Z,24.80
2019-05-23T10:56:02.038Z,27.00
2019-05-23T10:58:32.276Z,28.50
2019-05-23T11:01:02.354Z,29.10
2019-05-23T11:03:32.537Z,31.00
2019-05-23T11:06:15.687Z,29.00
2019-05-23T11:08:36.801Z,26.10
2019-05-23T11:11:07.689Z,24.90
2019-05-23T11:13:38.673Z,23.70
2019-05-23T11:16:09.217Z,26.10
2019-05-23T11:18:39.623Z,28.10
2019-05-23T11:21:10.005Z,29.80
2019-05-23T11:23:41.846Z,30.70
2019-05-23T11:26:12.739Z,33.50
2019-05-23T11:28:44.288Z,36.00
2019-05-23T11:31:15.635Z,37.50
2019-05-23T11:33:46.468Z,38.40
2019-05-23T11:36:33.914Z,40.10
2019-05-23T11:38:50.061Z,37.10
2019-05-23T11:41:20.899Z,36.50
2019-05-23T11:43:51.436Z,36.20
2019-05-23T11:46:28.917Z,36.00
2019-05-23T11:49:00.198Z,35.90
2019-05-23T11:51:31.152Z,35.90
2019-05-23T11:54:08.158Z,38.20
2019-05-23T11:56:33.143Z,39.20
2019-05-23T11:59:03.249Z,34.60
2019-05-23T12:01:53.457Z,31.30
2019-05-23T12:04:23.965Z,31.50
2019-05-23T12:06:56.570Z,32.00
2019-05-23T12:09:27.782Z,29.70
2019-05-23T12:11:57.861Z,29.70
2019-05-23T12:14:27.970Z,32.40
2019-05-23T12:16:58.628Z,34.30
2019-05-23T12:19:29.069Z,34.90
2019-05-23T12:22:00.360Z,35.70
2019-05-23T12:24:35.057Z,35.10
2019-05-23T12:27:02.574Z,36.60
2019-05-23T12:29:32.609Z,37.00
2019-05-23T12:32:03.970Z,36.50
2019-05-23T12:34:34.224Z,37.10
2019-05-23T12:37:18.176Z,38.30
2019-05-23T12:39:36.519Z,38.60
2019-05-23T12:42:06.601Z,37.80
2019-05-23T12:44:36.748Z,38.00
2019-05-23T12:47:08.534Z,38.80
2019-05-23T12:49:40.365Z,39.30
2019-05-23T12:52:11.146Z,39.70
2019-05-23T12:54:41.640Z,39.90
2019-05-23T12:57:13.025Z,37.60
2019-05-23T12:59:42.284Z,39.30
2019-05-23T13:02:13.928Z,40.50
2019-05-23T13:04:44.451Z,40.90
2019-05-23T13:07:15.513Z,40.00
2019-05-23T13:09:45.702Z,40.20
2019-05-23T13:12:16.628Z,39.80
2019-05-23T13:14:46.728Z,39.70
2019-05-23T13:17:16.811Z,39.80
2019-05-23T13:19:47.468Z,39.10
2019-05-23T13:22:18.280Z,37.70
2019-05-23T13:24:52.505Z,35.90
2019-05-23T13:27:20.086Z,35.40
2019-05-23T13:29:50.265Z,34.70
2019-05-23T13:32:20.422Z,33.70
2019-05-23T13:34:50.550Z,33.40
2019-05-23T13:37:21.197Z,31.10
2019-05-23T13:39:51.603Z,29.10
2019-05-23T13:42:22.910Z,29.90
2019-05-23T13:44:52.917Z,31.30
2019-05-23T13:47:23.503Z,30.90
2019-05-23T13:49:54.609Z,30.90
2019-05-23T13:52:24.597Z,28.80
2019-05-23T13:54:55.894Z,28.00
2019-05-23T13:57:26.268Z,27.40
2019-05-23T13:59:56.286Z,26.60
2019-05-23T14:02:26.334Z,26.10
2019-05-23T14:04:57.767Z,25.30
2019-05-23T14:07:28.323Z,24.10
2019-05-23T14:09:58.814Z,23.70
2019-05-23T14:12:29.439Z,23.30
2019-05-23T14:14:59.590Z,22.90
2019-05-23T14:17:40.183Z,22.60
2019-05-23T14:20:10.473Z,22.20
2019-05-23T14:22:42.264Z,22.00
2019-05-23T14:25:13.102Z,21.90
2019-05-23T14:27:53.799Z,21.70
2019-05-23T14:30:37.999Z,21.50
2019-05-23T14:33:28.223Z,21.30
2019-05-23T14:36:02.910Z,20.90
2019-05-23T14:38:35.940Z,20.80
2019-05-23T14:41:06.423Z,20.90
2019-05-23T14:43:36.710Z,21.00
2019-05-23T14:46:14.468Z,21.00
2019-05-23T14:48:55.452Z,21.00
2019-05-23T14:51:43.832Z,21.20
2019-05-23T14:54:18.054Z,20.90
2019-05-23T14:56:48.737Z,20.70
2019-05-23T14:59:18.926Z,20.80
2019-05-23T15:01:49.820Z,21.00
2019-05-23T15:04:20.166Z,20.90
2019-05-23T15:06:50.206Z,20.40
2019-05-23T15:09:21.517Z,20.00
2019-05-23T15:11:52.221Z,19.60
2019-05-23T15:14:22.304Z,19.80
2019-05-23T15:16:52.556Z,19.90
2019-05-23T15:19:39.147Z,19.70
2019-05-23T15:21:54.391Z,19.60
2019-05-23T15:24:24.524Z,19.60
2019-05-23T15:26:54.668Z,19.40
2019-05-23T15:29:28.869Z,19.60
2019-05-23T15:32:02.277Z,19.40
2019-05-23T15:34:28.668Z,19.40
2019-05-23T15:36:58.860Z,19.40
2019-05-23T15:39:29.647Z,19.60
2019-05-23T15:41:59.685Z,19.50
2019-05-23T15:44:30.508Z,19.40
2019-05-23T15:47:00.918Z,19.50
2019-05-23T15:49:32.632Z,19.50
2019-05-23T15:52:20.737Z,19.50
2019-05-23T15:54:52.388Z,19.40
2019-05-23T15:57:40.323Z,19.20
2019-05-23T16:00:25.085Z,19.20
2019-05-23T16:03:02.579Z,19.10
2019-05-23T16:05:33.276Z,19.10
2019-05-23T16:08:06.647Z,18.90
2019-05-23T16:10:37.168Z,18.80
2019-05-23T16:13:07.933Z,18.70
2019-05-23T16:15:38.145Z,18.70
2019-05-23T16:18:08.812Z,18.70
2019-05-23T16:20:38.922Z,18.80
2019-05-23T16:23:09.041Z,18.60
2019-05-23T16:25:39.078Z,18.60
2019-05-23T16:28:09.243Z,18.60
2019-05-23T16:30:40.008Z,18.50
2019-05-23T16:33:10.162Z,18.50
2019-05-23T16:35:40.349Z,18.40
2019-05-23T16:38:10.536Z,18.30
2019-05-23T16:40:40.641Z,18.20
2019-05-23T16:43:10.791Z,18.20
2019-05-23T16:45:40.974Z,18.20
2019-05-23T16:48:11.169Z,18.20
2019-05-23T16:50:41.277Z,18.20
2019-05-23T16:53:11.563Z,17.90
2019-05-23T16:55:43.417Z,17.80
2019-05-23T16:58:18.120Z,17.60
2019-05-23T17:01:06.434Z,17.60
2019-05-23T17:03:41.240Z,17.50
2019-05-23T17:06:28.282Z,17.60
2019-05-23T17:09:01.065Z,17.70
2019-05-23T17:11:37.077Z,17.70
2019-05-23T17:14:08.929Z,17.60
2019-05-23T17:16:40.881Z,17.60
2019-05-23T17:19:12.608Z,17.60
2019-05-23T17:21:44.424Z,17.50
2019-05-23T17:24:18.957Z,17.50
2019-05-23T17:26:53.148Z,17.50
2019-05-23T17:29:30.738Z,17.50
2019-05-23T17:32:01.855Z,17.50
2019-05-23T17:34:33.000Z,17.50
2019-05-23T17:37:03.391Z,17.50
2019-05-23T17:39:34.236Z,17.40
2019-05-23T17:42:04.510Z,17.30
2019-05-23T17:44:34.860Z,17.20
2019-05-23T17:47:05.170Z,17.20
2019-05-23T17:49:36.168Z,17.20
2019-05-23T17:52:07.846Z,17.10
2019-05-23T17:54:37.998Z,16.80
2019-05-23T17:57:09.076Z,16.70
2019-05-23T17:59:39.420Z,16.60
2019-05-23T18:02:10.981Z,16.70
2019-05-23T18:04:41.302Z,16.60
2019-05-23T18:07:11.651Z,16.60
2019-05-23T18:09:41.741Z,16.60
2019-05-23T18:12:12.712Z,16.70
2019-05-23T18:14:43.031Z,16.60
2019-05-23T18:17:13.412Z,16.50
2019-05-23T18:19:43.427Z,16.40
2019-05-23T18:22:14.105Z,16.30
2019-05-23T18:24:44.384Z,16.30
2019-05-23T18:27:14.568Z,16.20
2019-05-23T18:29:44.668Z,16.10
2019-05-23T18:32:16.622Z,16.00
2019-05-23T18:34:46.887Z,15.90
2019-05-23T18:37:18.232Z,15.90
2019-05-23T18:39:48.316Z,15.90
2019-05-23T18:42:18.597Z,15.80
2019-05-23T18:44:49.513Z,15.60
2019-05-23T18:47:21.125Z,15.50
2019-05-23T18:49:51.246Z,15.40
2019-05-23T18:52:21.259Z,15.30
2019-05-23T18:54:51.372Z,15.20
2019-05-23T18:57:21.731Z,15.20
2019-05-23T18:59:52.722Z,15.10
2019-05-23T19:02:24.122Z,15.00
2019-05-23T19:04:55.298Z,14.90
2019-05-23T19:07:26.328Z,14.80
2019-05-23T19:09:56.442Z,14.70
2019-05-23T19:12:26.603Z,14.60
2019-05-23T19:14:56.777Z,14.50
2019-05-23T19:17:26.965Z,14.40
2019-05-23T19:19:57.082Z,14.40
2019-05-23T19:22:27.880Z,14.40
2019-05-23T19:24:58.419Z,14.30
2019-05-23T19:27:29.449Z,14.20
2019-05-23T19:29:59.481Z,14.10
2019-05-23T19:32:29.992Z,14.00
2019-05-23T19:35:00.328Z,13.90
2019-05-23T19:37:30.419Z,13.90
2019-05-23T19:40:02.277Z,13.80
2019-05-23T19:42:32.597Z,13.70
2019-05-23T19:45:02.713Z,13.70
2019-05-23T19:47:33.036Z,13.60
2019-05-23T19:50:03.849Z,13.60
2019-05-23T19:52:33.956Z,13.40
2019-05-23T19:55:08.064Z,13.40
2019-05-23T19:57:38.451Z,13.30
2019-05-23T20:00:17.688Z,13.30
2019-05-23T20:02:52.210Z,13.30
2019-05-23T20:05:39.477Z,13.20
2019-05-23T20:08:10.021Z,13.20
2019-05-23T20:10:40.599Z,13.10
2019-05-23T20:13:10.881Z,13.00
2019-05-23T20:15:45.455Z,13.00
2019-05-23T20:18:13.443Z,12.90
2019-05-23T20:20:43.620Z,12.80
2019-05-23T20:23:16.101Z,12.70
2019-05-23T20:25:46.809Z,12.80
2019-05-23T20:28:16.967Z,12.70
2019-05-23T20:30:54.045Z,12.70
2019-05-23T20:33:24.434Z,12.60
2019-05-23T20:35:54.616Z,12.60
2019-05-23T20:38:26.440Z,12.50
2019-05-23T20:40:56.552Z,12.50
2019-05-23T20:43:26.768Z,12.50
2019-05-23T20:45:57.041Z,12.50
2019-05-23T20:48:28.487Z,12.40
2019-05-23T20:50:58.718Z,12.40
2019-05-23T20:53:28.799Z,12.40
2019-05-23T20:55:59.188Z,12.40
2019-05-23T20:58:29.205Z,12.30
2019-05-23T21:01:04.736Z,12.30
2019-05-23T21:03:36.274Z,12.20
2019-05-23T21:06:07.129Z,12.10
2019-05-23T21:08:37.772Z,12.10
2019-05-23T21:11:07.806Z,12.10
2019-05-23T21:13:38.059Z,12.10
2019-05-23T21:16:08.573Z,12.00
2019-05-23T21:18:38.714Z,12.00
2019-05-23T21:21:09.094Z,12.00
2019-05-23T21:23:39.214Z,11.90
2019-05-23T21:26:09.300Z,11.90
2019-05-23T21:28:39.580Z,11.90
2019-05-23T21:31:11.433Z,11.90
2019-05-23T21:33:41.617Z,11.90
2019-05-23T21:36:11.767Z,11.80
2019-05-23T21:38:42.876Z,11.80
2019-05-23T21:41:12.898Z,11.80
2019-05-23T21:43:43.404Z,11.70
2019-05-23T21:46:13.484Z,11.70
2019-05-23T21:48:43.596Z,11.70
2019-05-23T21:51:13.616Z,11.60
2019-05-23T21:53:43.725Z,11.60
2019-05-23T21:56:13.813Z,11.50
2019-05-23T21:58:43.934Z,11.60
2019-05-23T22:01:18.456Z,11.60
2019-05-23T22:03:50.580Z,11.50
2019-05-23T22:06:31.120Z,11.50
2019-05-23T22:09:02.232Z,11.40
2019-05-23T22:11:32.885Z,11.50
2019-05-23T22:14:03.540Z,11.40
2019-05-23T22:16:33.625Z,11.40
2019-05-23T22:19:05.472Z,11.40
2019-05-23T22:21:35.488Z,11.40
2019-05-23T22:24:05.870Z,11.30
2019-05-23T22:26:36.051Z,11.30
2019-05-23T22:29:07.032Z,11.20
2019-05-23T22:31:37.273Z,11.20
2019-05-23T22:34:25.291Z,11.30
2019-05-23T22:36:55.631Z,11.20
2019-05-23T22:39:26.143Z,11.30
2019-05-23T22:41:56.084Z,11.20
2019-05-23T22:44:26.191Z,11.30
2019-05-23T22:46:56.549Z,11.20
2019-05-23T22:49:26.660Z,11.20
2019-05-23T22:51:56.607Z,11.10
2019-05-23T22:54:26.787Z,11.10
2019-05-23T22:56:56.729Z,11.10
2019-05-23T22:59:27.985Z,11.10
2019-05-23T23:01:58.169Z,10.90
2019-05-23T23:04:28.282Z,11.00
2019-05-23T23:06:58.391Z,11.00
2019-05-23T23:09:28.836Z,11.00
2019-05-23T23:11:59.418Z,11.00
2019-05-23T23:14:29.501Z,11.00
2019-05-23T23:16:59.667Z,10.80
2019-05-23T23:19:29.776Z,10.80
2019-05-23T23:21:59.893Z,10.80
2019-05-23T23:24:29.976Z,10.70
2019-05-23T23:27:00.093Z,10.60
2019-05-23T23:29:30.103Z,10.60
2019-05-23T23:32:03.689Z,10.50
2019-05-23T23:34:32.882Z,10.50
2019-05-23T23:37:02.988Z,10.40
2019-05-23T23:39:33.241Z,10.40
2019-05-23T23:42:04.999Z,10.40
2019-05-23T23:44:34.605Z,10.30
2019-05-23T23:47:24.132Z,10.20
2019-05-23T23:50:12.361Z,10.20
2019-05-23T23:53:00.107Z,10.10
2019-05-23T23:55:48.276Z,10.10
2019-05-23T23:58:17.741Z,10.00
